createdAt,value
2022-09-13T00:04:14.953Z,4.05
2022-09-13T00:09:15.708Z,3.25
2022-09-13T00:14:16.495Z,5.68
2022-09-13T00:19:17.393Z,2.30
2022-09-13T00:24:18.263Z,4.95
2022-09-13T00:29:19.753Z,3.12
2022-09-13T00:34:21.074Z,3.62
2022-09-13T00:39:22.155Z,2.22
2022-09-13T00:44:59.142Z,5.22
2022-09-13T00:50:18.219Z,3.00
2022-09-13T00:55:34.426Z,3.20
2022-09-13T01:00:36.756Z,5.37
2022-09-13T01:05:45.770Z,3.33
2022-09-13T01:10:48.562Z,3.05
2022-09-13T01:15:49.482Z,3.17
2022-09-13T01:25:50.179Z,2.90
2022-09-13T01:31:07.221Z,2.92
2022-09-13T01:38:08.171Z,3.37
2022-09-13T01:43:25.635Z,9.10
2022-09-13T01:50:06.940Z,3.50
2022-09-13T01:56:45.367Z,2.03
2022-09-13T02:01:57.004Z,4.15
2022-09-13T02:07:08.060Z,2.70
2022-09-13T02:12:26.931Z,4.50
2022-09-13T02:17:33.430Z,2.00
2022-09-13T02:22:41.178Z,2.05
2022-09-13T02:27:47.526Z,2.42
2022-09-13T02:33:18.080Z,2.40
2022-09-13T02:38:34.559Z,2.87
2022-09-13T02:43:43.431Z,1.77
2022-09-13T02:48:58.194Z,3.08
2022-09-13T02:54:51.693Z,3.62
2022-09-13T02:59:52.524Z,6.10
2022-09-13T03:04:53.590Z,2.92
2022-09-13T03:10:00.846Z,2.75
2022-09-13T03:15:52.451Z,2.53
2022-09-13T03:21:39.468Z,2.72
2022-09-13T03:27:03.786Z,2.45
2022-09-13T03:32:43.830Z,6.57
2022-09-13T03:38:56.349Z,1.70
2022-09-13T03:44:05.306Z,3.87
2022-09-13T03:49:11.836Z,4.43
2022-09-13T03:54:22.532Z,3.05
2022-09-13T03:59:23.758Z,3.00
2022-09-13T04:04:25.929Z,3.08
2022-09-13T04:09:26.925Z,2.60
2022-09-13T04:14:27.687Z,2.33
2022-09-13T04:19:28.782Z,2.12
2022-09-13T04:24:30.606Z,1.92
2022-09-13T04:29:31.807Z,1.75
2022-09-13T04:34:32.627Z,4.00
2022-09-13T04:39:33.452Z,2.45
2022-09-13T04:44:34.653Z,7.10
2022-09-13T04:49:35.425Z,3.22
2022-09-13T04:54:37.382Z,3.28
2022-09-13T04:59:38.209Z,2.78
2022-09-13T05:04:39.431Z,3.50
2022-09-13T05:09:40.250Z,3.05
2022-09-13T05:14:41.076Z,3.70
2022-09-13T05:19:41.825Z,3.08
2022-09-13T05:24:42.613Z,13.82
2022-09-13T05:29:43.371Z,8.35
2022-09-13T05:34:44.118Z,8.02
2022-09-13T05:40:07.785Z,26.70
2022-09-13T05:45:11.517Z,23.98
2022-09-13T05:50:26.542Z,33.17
2022-09-13T05:55:34.915Z,38.40
2022-09-13T06:00:35.786Z,33.83
2022-09-13T06:05:36.737Z,18.42
2022-09-13T06:10:37.635Z,10.00
2022-09-13T06:15:43.134Z,9.13
2022-09-13T06:20:44.721Z,9.98
2022-09-13T06:25:45.856Z,6.03
2022-09-13T06:30:46.704Z,7.25
2022-09-13T06:35:47.545Z,17.87
2022-09-13T06:40:48.423Z,16.73
2022-09-13T06:45:49.948Z,7.45
2022-09-13T06:50:50.942Z,21.45
2022-09-13T06:56:04.210Z,13.82
2022-09-13T07:01:14.261Z,9.65
2022-09-13T07:06:22.553Z,62.83
2022-09-13T07:11:26.507Z,29.12
2022-09-13T07:16:30.332Z,13.18
2022-09-13T07:21:32.504Z,15.38
2022-09-13T07:26:33.750Z,7.90
2022-09-13T07:31:39.746Z,5.95
2022-09-13T07:36:41.276Z,6.30
2022-09-13T07:41:43.019Z,4.05
2022-09-13T07:46:43.943Z,8.88
2022-09-13T07:51:45.592Z,6.57
2022-09-13T07:56:49.345Z,4.65
2022-09-13T08:01:51.424Z,2.95
2022-09-13T08:06:52.515Z,5.37
2022-09-13T08:11:53.515Z,5.65
2022-09-13T08:16:56.278Z,3.50
2022-09-13T08:21:57.039Z,5.95
2022-09-13T08:26:57.833Z,2.83
2022-09-13T08:31:58.552Z,3.00
2022-09-13T08:36:59.336Z,3.40
2022-09-13T08:42:11.039Z,5.50
2022-09-13T08:54:02.562Z,6.00
2022-09-13T08:59:20.566Z,4.12
2022-09-13T09:05:55.162Z,5.60
2022-09-13T09:11:01.078Z,5.78
2022-09-13T09:22:52.616Z,5.87
2022-09-13T09:27:54.270Z,7.35
2022-09-13T09:36:24.295Z,9.00
2022-09-13T09:41:31.902Z,9.77
2022-09-13T09:46:40.498Z,7.07
2022-09-13T09:51:41.332Z,11.10
2022-09-13T09:56:53.549Z,6.85
2022-09-13T10:01:56.753Z,5.90
2022-09-13T10:07:23.569Z,6.50
2022-09-13T10:12:29.334Z,8.63
2022-09-13T10:17:30.741Z,6.90
2022-09-13T10:22:32.850Z,8.63
2022-09-13T10:27:42.203Z,5.87
2022-09-13T10:32:54.155Z,6.00
2022-09-13T10:37:55.809Z,10.05
2022-09-13T10:42:58.916Z,5.00
2022-09-13T10:48:19.217Z,5.75
2022-09-13T10:53:38.329Z,5.75
2022-09-13T10:58:39.196Z,5.32
2022-09-13T11:04:04.189Z,3.28
2022-09-13T11:09:21.373Z,3.00
2022-09-13T11:17:51.678Z,1.58
2022-09-13T11:23:22.303Z,1.87
2022-09-13T11:28:49.672Z,3.08
2022-09-13T11:35:43.674Z,4.68
2022-09-13T11:49:29.112Z,3.37
2022-09-13T11:54:51.913Z,2.85
2022-09-13T11:59:58.868Z,3.42
2022-09-13T12:05:30.020Z,3.12
2022-09-13T12:10:46.464Z,7.72
2022-09-13T12:15:52.135Z,5.30
2022-09-13T12:20:58.675Z,4.53
2022-09-13T12:26:16.064Z,5.97
2022-09-13T12:31:22.005Z,4.25
2022-09-13T12:38:46.358Z,2.03
2022-09-13T12:55:47.579Z,2.28
2022-09-13T13:01:16.274Z,2.28
2022-09-13T13:06:38.739Z,1.87
2022-09-13T13:11:46.977Z,3.87
2022-09-13T13:16:48.943Z,1.42
2022-09-13T13:21:49.736Z,2.30
2022-09-13T13:26:57.757Z,2.65
2022-09-13T13:32:11.596Z,2.70
2022-09-13T13:37:32.726Z,5.93
2022-09-13T13:42:37.524Z,2.20
2022-09-13T13:47:53.325Z,3.28
2022-09-13T13:53:04.736Z,1.98
2022-09-13T13:58:25.504Z,2.72
2022-09-13T14:05:08.075Z,3.05
2022-09-13T14:10:29.699Z,1.35
2022-09-13T14:15:58.809Z,1.08
2022-09-13T14:21:23.566Z,1.30
2022-09-13T14:26:24.500Z,2.28
2022-09-13T14:31:25.495Z,1.75
2022-09-13T14:36:26.890Z,1.60
2022-09-13T14:41:37.300Z,1.87
2022-09-13T14:46:42.546Z,3.47
2022-09-13T14:51:55.705Z,1.20
2022-09-13T14:57:02.076Z,1.62
2022-09-13T15:02:15.621Z,4.37
2022-09-13T15:07:26.801Z,2.35
2022-09-13T15:12:27.750Z,2.90
2022-09-13T15:17:28.834Z,3.58
2022-09-13T15:22:32.542Z,1.52
2022-09-13T15:27:44.870Z,2.08
2022-09-13T15:32:45.779Z,2.62
2022-09-13T15:37:58.562Z,2.80
2022-09-13T15:42:59.823Z,6.72
2022-09-13T15:48:01.058Z,2.92
2022-09-13T15:53:04.767Z,4.15
2022-09-13T15:58:05.554Z,1.73
2022-09-13T16:03:08.488Z,2.95
2022-09-13T16:08:11.111Z,2.67
2022-09-13T16:13:12.053Z,6.40
2022-09-13T16:18:16.291Z,3.75
2022-09-13T16:23:17.350Z,3.58
2022-09-13T16:28:21.243Z,3.58
2022-09-13T16:33:22.225Z,3.70
2022-09-13T16:38:23.067Z,2.87
2022-09-13T16:43:23.824Z,2.42
2022-09-13T16:48:25.036Z,5.15
2022-09-13T16:53:25.781Z,7.37
2022-09-13T16:58:26.550Z,2.95
2022-09-13T17:03:27.351Z,5.12
2022-09-13T17:08:28.910Z,4.95
2022-09-13T17:13:29.672Z,1.85
2022-09-13T17:18:30.903Z,4.20
2022-09-13T17:23:31.868Z,2.53
2022-09-13T17:28:34.687Z,6.05
2022-09-13T17:38:37.421Z,1.75
2022-09-13T17:43:39.737Z,4.57
2022-09-13T17:48:41.486Z,2.33
2022-09-13T17:53:45.401Z,2.78
2022-09-13T17:58:46.701Z,2.03
2022-09-13T18:03:47.616Z,3.37
2022-09-13T18:08:52.604Z,5.15
2022-09-13T18:13:53.357Z,2.78
2022-09-13T18:18:55.185Z,5.15
2022-09-13T18:23:58.263Z,3.15
2022-09-13T18:29:02.628Z,3.25
2022-09-13T18:34:07.242Z,3.67
2022-09-13T18:39:14.968Z,3.08
2022-09-13T18:44:17.146Z,3.28
2022-09-13T18:49:18.937Z,2.67
2022-09-13T18:54:19.952Z,5.97
2022-09-13T18:59:20.742Z,3.95
2022-09-13T19:04:21.621Z,6.82
2022-09-13T19:09:23.247Z,5.65
2022-09-13T19:14:26.888Z,3.72
2022-09-13T19:19:30.359Z,4.57
2022-09-13T19:24:31.119Z,3.87
2022-09-13T19:29:31.964Z,9.07
2022-09-13T19:34:32.716Z,2.17
2022-09-13T19:39:33.710Z,3.30
2022-09-13T19:44:34.461Z,4.80
2022-09-13T19:49:35.240Z,3.17
2022-09-13T19:54:35.986Z,7.87
2022-09-13T19:59:36.787Z,4.93
2022-09-13T20:04:37.566Z,6.93
2022-09-13T20:09:40.756Z,5.70
2022-09-13T20:14:41.486Z,3.22
2022-09-13T20:19:49.135Z,6.65
2022-09-13T20:24:50.888Z,8.70
2022-09-13T20:29:51.667Z,6.20
2022-09-13T20:34:52.533Z,4.35
2022-09-13T20:39:53.533Z,3.40
2022-09-13T20:44:54.391Z,7.40
2022-09-13T20:49:55.200Z,7.03
2022-09-13T20:54:56.485Z,6.53
2022-09-13T20:59:57.253Z,8.65
2022-09-13T21:04:59.005Z,6.75
2022-09-13T21:10:00.279Z,13.73
2022-09-13T21:15:01.304Z,12.40
2022-09-13T21:20:02.393Z,6.10
2022-09-13T21:25:04.032Z,13.25
2022-09-13T21:30:07.949Z,8.48
2022-09-13T21:35:08.678Z,4.15
2022-09-13T21:40:10.143Z,11.70
2022-09-13T21:45:11.031Z,6.47
2022-09-13T21:50:11.781Z,6.65
2022-09-13T21:55:12.551Z,8.73
2022-09-13T22:00:14.442Z,8.52
2022-09-13T22:05:15.304Z,5.97
2022-09-13T22:10:16.418Z,6.75
2022-09-13T22:15:17.359Z,8.68
2022-09-13T22:20:18.924Z,5.60
2022-09-13T22:25:19.638Z,10.00
2022-09-13T22:30:20.557Z,5.85
2022-09-13T22:35:21.314Z,8.10
2022-09-13T22:40:22.275Z,5.65
2022-09-13T22:45:23.052Z,6.15
2022-09-13T22:50:23.897Z,8.55
2022-09-13T22:55:24.866Z,6.93
2022-09-13T23:00:25.623Z,6.97
2022-09-13T23:05:26.575Z,7.72
2022-09-13T23:10:27.457Z,8.60
2022-09-13T23:15:28.212Z,6.05
2022-09-13T23:20:29.252Z,5.00
2022-09-13T23:25:32.174Z,9.00
2022-09-13T23:35:36.154Z,6.22
2022-09-13T23:40:37.010Z,10.02
2022-09-13T23:45:37.856Z,6.57
2022-09-13T23:50:38.772Z,7.80
2022-09-13T23:55:39.522Z,10.77
